Time;durP1;ratioP1;P1;durP2;ratioP2;P2;SDS_P1;SDS_P2;PMS_P1;PMS_P2;Temp;Humidity;BMP_temperature;BMP_pressure;BME280_temperature;BME280_humidity;BME280_pressure;Samples;Min_cycle;Max_cycle;Signal;HPM_P1;HPM_P2
2023/04/20 00:00:11;;;;;;;12.30;5.93;;;9.30;48.60;;;;;;4997760;28;20042;-87
2023/04/20 00:02:37;;;;;;;8.90;5.45;;;9.40;48.50;;;;;;5001352;28;20126;-86
2023/04/20 00:05:08;;;;;;;8.40;5.05;;;9.40;48.90;;;;;;4996229;28;20017;-87
2023/04/20 00:07:34;;;;;;;8.98;5.30;;;9.30;48.60;;;;;;4995054;28;20050;-85
2023/04/20 00:10:00;;;;;;;9.90;5.38;;;9.30;48.90;;;;;;4997546;28;20359;-85
2023/04/20 00:12:26;;;;;;;11.55;5.15;;;9.30;48.60;;;;;;4992782;28;20086;-84
2023/04/20 00:14:52;;;;;;;11.63;6.07;;;9.30;48.90;;;;;;4995142;28;20057;-86
2023/04/20 00:17:18;;;;;;;8.40;5.30;;;9.30;49.00;;;;;;4996189;28;20034;-85
2023/04/20 00:19:45;;;;;;;8.75;5.22;;;9.20;49.00;;;;;;4990950;28;20022;-86
2023/04/20 00:22:11;;;;;;;11.70;6.03;;;9.20;49.10;;;;;;4991895;28;20069;-87
2023/04/20 00:24:37;;;;;;;11.40;5.68;;;9.20;49.20;;;;;;4993835;28;20065;-90
2023/04/20 00:27:03;;;;;;;10.98;5.40;;;9.10;48.90;;;;;;4998126;28;20371;-86
2023/04/20 00:29:29;;;;;;;9.60;5.65;;;9.10;48.90;;;;;;4995714;28;20045;-87
2023/04/20 00:31:54;;;;;;;9.68;5.07;;;9.10;48.90;;;;;;4998695;28;20042;-87
2023/04/20 00:34:20;;;;;;;8.90;4.95;;;9.10;49.20;;;;;;5001257;28;20042;-88
2023/04/20 00:36:46;;;;;;;8.70;5.18;;;9.10;48.80;;;;;;4995798;28;20456;-85
2023/04/20 00:39:11;;;;;;;14.68;5.60;;;9.10;48.90;;;;;;5006731;28;20022;-87
2023/04/20 00:41:37;;;;;;;9.82;5.43;;;9.10;48.90;;;;;;5007111;28;20038;-86
2023/04/20 00:44:05;;;;;;;9.02;5.30;;;9.00;49.20;;;;;;5011377;28;20032;-87
2023/04/20 00:46:31;;;;;;;11.63;5.90;;;8.90;49.10;;;;;;5007353;28;20146;-87
2023/04/20 00:48:57;;;;;;;13.30;5.85;;;8.90;49.30;;;;;;5004585;28;20022;-88
2023/04/20 00:51:23;;;;;;;8.32;5.10;;;8.80;49.50;;;;;;5002744;28;20042;-85
2023/04/20 00:53:49;;;;;;;12.43;5.70;;;8.80;49.40;;;;;;4995117;28;20073;-86
2023/04/20 00:56:15;;;;;;;10.82;5.50;;;8.80;49.60;;;;;;4991813;28;20476;-88
2023/04/20 00:58:45;;;;;;;11.32;5.25;;;8.70;49.60;;;;;;4993465;28;20018;-86
2023/04/20 01:01:12;;;;;;;10.63;5.70;;;8.70;49.80;;;;;;4996877;28;20068;-87
2023/04/20 01:03:41;;;;;;;8.82;5.28;;;8.70;49.50;;;;;;5007172;28;20053;-89
2023/04/20 01:06:07;;;;;;;9.20;5.18;;;8.70;49.60;;;;;;5014821;28;20050;-90
2023/04/20 01:08:33;;;;;;;14.20;5.93;;;8.70;49.70;;;;;;5005046;28;20014;-90
2023/04/20 01:10:59;;;;;;;10.00;5.55;;;8.60;49.80;;;;;;5005285;28;20141;-87
2023/04/20 01:13:24;;;;;;;14.15;5.78;;;8.60;50.10;;;;;;5000593;28;20049;-86
2023/04/20 01:15:50;;;;;;;8.77;5.43;;;8.60;49.90;;;;;;5004599;28;20022;-86
2023/04/20 01:18:18;;;;;;;9.45;5.32;;;8.60;50.00;;;;;;4989594;28;20054;-85
2023/04/20 01:20:45;;;;;;;12.00;6.00;;;8.60;49.70;;;;;;4993739;28;20487;-86
2023/04/20 01:23:11;;;;;;;8.43;5.53;;;8.50;49.80;;;;;;4996999;28;20463;-88
2023/04/20 01:25:37;;;;;;;9.90;5.60;;;8.60;49.50;;;;;;4987412;28;20031;-86
2023/04/20 01:28:03;;;;;;;11.43;5.90;;;8.50;49.60;;;;;;5003365;28;20541;-88
2023/04/20 01:30:30;;;;;;;9.63;5.55;;;8.50;49.80;;;;;;4998338;28;20030;-87
2023/04/20 01:32:55;;;;;;;9.57;5.15;;;8.40;49.90;;;;;;4993047;28;20467;-87
2023/04/20 01:35:21;;;;;;;10.23;5.45;;;8.40;49.90;;;;;;4993148;28;20106;-86
2023/04/20 01:37:47;;;;;;;12.07;6.03;;;8.40;50.00;;;;;;5002784;28;20034;-86
2023/04/20 01:40:14;;;;;;;9.40;5.90;;;8.40;50.40;;;;;;5002911;28;20022;-86
2023/04/20 01:42:40;;;;;;;11.13;5.78;;;8.30;50.10;;;;;;4997311;28;20038;-85
2023/04/20 01:45:06;;;;;;;8.90;5.35;;;8.30;50.20;;;;;;5003681;28;20034;-87
2023/04/20 01:47:33;;;;;;;9.27;5.90;;;8.30;50.50;;;;;;5008315;28;20112;-86
2023/04/20 01:49:58;;;;;;;10.38;5.97;;;8.30;50.80;;;;;;4994955;28;20022;-85
2023/04/20 01:52:24;;;;;;;9.45;5.47;;;8.20;50.80;;;;;;5000768;28;20050;-85
2023/04/20 01:54:50;;;;;;;10.75;5.70;;;8.20;50.90;;;;;;4999013;28;20022;-85
2023/04/20 01:57:16;;;;;;;10.02;5.55;;;8.20;51.20;;;;;;4999685;28;20030;-86
2023/04/20 01:59:42;;;;;;;9.32;5.30;;;8.10;51.20;;;;;;5008727;28;20045;-88
2023/04/20 02:02:07;;;;;;;10.20;5.70;;;8.10;51.20;;;;;;5013225;28;20027;-91
2023/04/20 02:04:33;;;;;;;14.25;6.65;;;8.10;51.20;;;;;;5019125;28;20034;-86
2023/04/20 02:06:59;;;;;;;10.15;5.88;;;8.10;51.00;;;;;;4998948;28;20033;-84
2023/04/20 02:09:25;;;;;;;9.98;5.80;;;8.10;50.70;;;;;;5003118;28;20018;-87
2023/04/20 02:11:50;;;;;;;10.00;5.78;;;8.10;50.80;;;;;;5007485;28;20042;-86
2023/04/20 02:14:16;;;;;;;10.40;5.78;;;8.00;50.90;;;;;;5014996;28;20026;-86
2023/04/20 02:16:42;;;;;;;8.23;5.40;;;8.00;50.70;;;;;;4999630;28;20027;-85
2023/04/20 02:19:08;;;;;;;9.90;5.50;;;8.00;50.60;;;;;;5004970;28;20288;-88
2023/04/20 02:21:34;;;;;;;8.40;5.53;;;7.90;50.90;;;;;;5024469;28;20025;-84
2023/04/20 02:24:00;;;;;;;12.38;5.43;;;7.90;51.00;;;;;;5024687;28;20049;-87
2023/04/20 02:26:26;;;;;;;9.57;5.15;;;7.80;50.80;;;;;;5019640;28;20029;-91
2023/04/20 02:28:52;;;;;;;8.27;5.00;;;7.90;50.90;;;;;;5026854;28;20025;-89
2023/04/20 02:31:17;;;;;;;8.90;5.22;;;7.90;51.40;;;;;;5031441;28;20034;-91
2023/04/20 02:33:43;;;;;;;10.25;5.53;;;7.80;51.20;;;;;;5015128;28;20336;-90
2023/04/20 02:36:09;;;;;;;7.88;4.93;;;7.70;51.70;;;;;;5019306;28;20026;-89
2023/04/20 02:38:36;;;;;;;8.55;5.53;;;7.70;51.60;;;;;;5020270;28;20042;-89
2023/04/20 02:41:02;;;;;;;9.57;5.88;;;7.60;52.20;;;;;;5017375;28;20041;-90
2023/04/20 02:43:28;;;;;;;9.85;6.30;;;7.60;52.30;;;;;;5015833;28;20665;-89
2023/04/20 02:45:53;;;;;;;10.88;6.10;;;7.50;52.40;;;;;;5010658;28;20089;-87
2023/04/20 02:48:19;;;;;;;10.18;5.38;;;7.50;52.70;;;;;;5011729;28;20027;-87
2023/04/20 02:50:45;;;;;;;12.75;5.45;;;7.40;52.50;;;;;;5014365;28;20027;-88
2023/04/20 02:53:10;;;;;;;11.45;5.05;;;7.30;52.60;;;;;;5007545;28;20049;-85
2023/04/20 02:55:36;;;;;;;10.13;5.65;;;7.40;52.40;;;;;;5002202;28;20081;-86
2023/04/20 02:58:02;;;;;;;10.68;6.15;;;7.30;52.80;;;;;;5008786;28;20018;-87
2023/04/20 03:00:28;;;;;;;15.93;7.10;;;7.30;53.80;;;;;;5005954;28;20085;-85
2023/04/20 03:02:55;;;;;;;16.05;8.27;;;7.20;54.80;;;;;;4981629;28;20054;-85
2023/04/20 03:05:20;;;;;;;13.88;8.02;;;7.10;55.50;;;;;;5002632;28;20022;-86
2023/04/20 03:07:46;;;;;;;15.48;8.60;;;7.00;56.00;;;;;;4997942;28;20039;-86
2023/04/20 03:10:12;;;;;;;16.63;9.65;;;6.90;56.60;;;;;;5000848;28;20478;-87
2023/04/20 03:12:37;;;;;;;19.27;11.38;;;6.80;57.30;;;;;;4999958;28;20034;-88
2023/04/20 03:15:05;;;;;;;21.20;12.15;;;6.70;57.60;;;;;;5001342;28;20019;-86
2023/04/20 03:17:30;;;;;;;23.48;13.80;;;6.70;58.00;;;;;;4997523;28;20041;-86
2023/04/20 03:19:56;;;;;;;24.88;14.18;;;6.60;58.50;;;;;;5001467;28;20030;-86
2023/04/20 03:22:22;;;;;;;22.83;13.73;;;6.50;59.00;;;;;;5001837;28;20032;-85
2023/04/20 03:24:48;;;;;;;22.98;13.30;;;6.50;59.20;;;;;;5000486;28;20037;-85
2023/04/20 03:27:13;;;;;;;20.92;12.23;;;6.50;59.60;;;;;;5003298;28;20056;-86
2023/04/20 03:29:39;;;;;;;21.45;12.38;;;6.30;59.90;;;;;;4995959;28;20061;-86
2023/04/20 03:32:05;;;;;;;18.80;11.32;;;6.30;59.90;;;;;;5002461;28;20045;-87
2023/04/20 03:34:31;;;;;;;20.00;9.75;;;6.30;59.80;;;;;;5001806;28;20030;-87
2023/04/20 03:36:57;;;;;;;20.10;10.98;;;6.30;59.50;;;;;;4999333;28;20125;-86
2023/04/20 03:39:23;;;;;;;18.67;10.10;;;6.20;59.50;;;;;;5000048;28;20060;-85
2023/04/20 03:41:49;;;;;;;16.92;10.35;;;6.20;59.80;;;;;;5000431;28;20033;-85
2023/04/20 03:44:15;;;;;;;20.30;9.10;;;6.20;60.10;;;;;;5004363;28;20026;-87
2023/04/20 03:46:41;;;;;;;13.73;8.52;;;6.20;60.30;;;;;;5011375;28;20471;-87
2023/04/20 03:49:06;;;;;;;15.95;8.20;;;6.10;60.40;;;;;;5006176;28;20091;-88
2023/04/20 03:51:32;;;;;;;14.98;7.32;;;6.10;60.40;;;;;;4997342;28;20360;-87
2023/04/20 03:53:58;;;;;;;13.57;7.53;;;6.10;60.30;;;;;;5003785;28;20084;-87
2023/04/20 03:56:26;;;;;;;17.45;7.97;;;6.10;60.50;;;;;;5003557;28;20034;-87
2023/04/20 03:58:52;;;;;;;13.73;7.82;;;6.10;60.40;;;;;;5006345;28;20025;-87
2023/04/20 04:01:17;;;;;;;14.63;8.15;;;6.00;60.60;;;;;;5012676;28;20086;-91
2023/04/20 04:03:43;;;;;;;14.73;7.40;;;5.90;60.80;;;;;;5019088;28;20081;-86
2023/04/20 04:06:09;;;;;;;12.15;7.45;;;5.90;60.90;;;;;;5008858;28;20045;-87
2023/04/20 04:08:35;;;;;;;12.52;7.50;;;5.90;61.00;;;;;;5006123;28;20038;-85
2023/04/20 04:11:01;;;;;;;13.98;7.28;;;5.90;61.20;;;;;;5005735;28;20061;-87
2023/04/20 04:13:27;;;;;;;14.05;7.00;;;5.90;61.20;;;;;;5006162;28;20023;-87
2023/04/20 04:15:53;;;;;;;10.75;6.80;;;5.80;61.30;;;;;;5007575;28;20077;-88
2023/04/20 04:18:20;;;;;;;11.38;7.00;;;5.80;61.40;;;;;;5008522;28;20027;-83
2023/04/20 04:20:46;;;;;;;12.95;7.05;;;5.80;61.40;;;;;;4992345;28;20022;-87
2023/04/20 04:23:11;;;;;;;9.68;6.07;;;5.80;61.20;;;;;;5013335;28;20053;-87
2023/04/20 04:25:41;;;;;;;12.68;6.30;;;5.80;61.20;;;;;;4996671;28;20041;-88
2023/04/20 04:28:06;;;;;;;15.10;6.97;;;5.80;61.20;;;;;;5005861;28;20037;-87
2023/04/20 04:30:32;;;;;;;11.32;6.32;;;5.80;61.20;;;;;;4992817;28;20071;-86
2023/04/20 04:32:58;;;;;;;13.07;6.40;;;5.80;61.30;;;;;;4997342;28;20038;-86
2023/04/20 04:35:24;;;;;;;11.15;6.60;;;5.80;61.10;;;;;;5002764;28;20050;-88
2023/04/20 04:37:51;;;;;;;16.27;6.70;;;5.80;61.20;;;;;;4993825;28;20019;-86
2023/04/20 04:40:17;;;;;;;11.40;6.13;;;5.90;61.00;;;;;;4998367;28;20027;-85
2023/04/20 04:42:44;;;;;;;10.43;6.18;;;5.90;61.00;;;;;;4998703;28;20120;-88
2023/04/20 04:45:12;;;;;;;10.38;5.75;;;5.90;61.10;;;;;;5000604;28;20025;-87
2023/04/20 04:47:40;;;;;;;10.25;5.88;;;5.90;61.30;;;;;;5019865;28;20498;-88
2023/04/20 04:50:06;;;;;;;14.02;6.45;;;5.90;61.60;;;;;;4998584;28;20046;-87
2023/04/20 04:52:32;;;;;;;11.60;6.28;;;5.80;61.80;;;;;;4993769;28;20046;-87
2023/04/20 04:54:58;;;;;;;10.70;6.45;;;5.80;61.80;;;;;;4998467;28;20088;-86
2023/04/20 04:57:25;;;;;;;11.18;6.47;;;5.80;61.80;;;;;;4998833;28;20030;-86
2023/04/20 04:59:51;;;;;;;11.95;6.97;;;5.80;61.90;;;;;;4993102;28;20018;-86
2023/04/20 05:02:17;;;;;;;12.85;6.28;;;5.90;61.80;;;;;;4990944;28;20131;-85
2023/04/20 05:04:42;;;;;;;10.02;6.43;;;5.90;61.80;;;;;;4995810;28;20123;-86
2023/04/20 05:07:09;;;;;;;8.50;5.80;;;5.90;62.00;;;;;;4995423;28;20098;-85
2023/04/20 05:09:35;;;;;;;13.77;6.60;;;5.90;62.30;;;;;;5000403;28;20018;-85
2023/04/20 05:12:02;;;;;;;12.32;6.60;;;5.90;62.50;;;;;;5002223;28;20062;-86
2023/04/20 05:14:30;;;;;;;11.10;6.40;;;6.00;62.60;;;;;;4997194;28;20027;-86
2023/04/20 05:16:57;;;;;;;11.30;6.50;;;6.00;62.70;;;;;;5017039;28;20082;-88
2023/04/20 05:19:23;;;;;;;10.93;6.00;;;6.00;62.90;;;;;;5003414;28;20014;-89
2023/04/20 05:21:48;;;;;;;13.77;6.45;;;6.10;63.10;;;;;;5003370;28;20030;-88
2023/04/20 05:24:14;;;;;;;11.77;6.10;;;6.10;63.00;;;;;;4994869;28;20057;-85
2023/04/20 05:26:40;;;;;;;11.57;6.68;;;6.10;63.10;;;;;;4997481;28;20026;-87
2023/04/20 05:29:05;;;;;;;10.45;6.50;;;6.10;63.20;;;;;;5005467;28;20026;-87
2023/04/20 05:31:32;;;;;;;10.07;6.18;;;6.10;63.20;;;;;;5007492;28;20034;-90
2023/04/20 05:33:58;;;;;;;9.30;6.13;;;6.30;63.30;;;;;;5000888;28;20034;-87
2023/04/20 05:36:23;;;;;;;11.65;6.22;;;6.40;63.00;;;;;;5001426;28;20460;-88
2023/04/20 05:38:49;;;;;;;11.70;6.28;;;6.50;63.00;;;;;;4993690;28;20033;-86
2023/04/20 05:41:15;;;;;;;13.02;6.30;;;6.60;63.20;;;;;;5000990;28;20029;-92
2023/04/20 05:43:41;;;;;;;10.88;6.18;;;6.60;62.90;;;;;;5008681;28;20022;-87
2023/04/20 05:46:06;;;;;;;11.65;6.55;;;6.70;63.20;;;;;;5010158;28;20035;-87
2023/04/20 05:48:32;;;;;;;12.40;6.82;;;6.70;63.40;;;;;;4998927;28;20022;-88
2023/04/20 05:50:58;;;;;;;11.48;6.05;;;6.80;63.50;;;;;;4999560;28;20419;-86
2023/04/20 05:53:23;;;;;;;12.35;6.43;;;6.90;63.70;;;;;;5010758;28;20030;-85
2023/04/20 05:55:49;;;;;;;10.27;7.05;;;7.00;63.80;;;;;;5009885;28;20015;-85
2023/04/20 05:58:16;;;;;;;11.35;6.75;;;7.10;63.90;;;;;;4998072;28;20029;-86
2023/04/20 06:00:41;;;;;;;11.65;6.18;;;7.20;64.10;;;;;;4997295;28;20026;-86
2023/04/20 06:03:07;;;;;;;11.27;6.45;;;7.40;64.00;;;;;;4994173;28;20022;-85
2023/04/20 06:05:33;;;;;;;12.05;6.10;;;7.50;64.00;;;;;;4996699;28;20022;-85
2023/04/20 06:07:58;;;;;;;12.02;6.65;;;7.60;64.40;;;;;;4995357;28;20051;-84
2023/04/20 06:10:24;;;;;;;10.25;5.75;;;7.70;64.30;;;;;;4994509;28;20453;-87
2023/04/20 06:12:50;;;;;;;10.48;5.97;;;7.90;64.20;;;;;;4992631;28;20038;-86
2023/04/20 06:15:16;;;;;;;11.88;5.97;;;7.90;64.10;;;;;;4998383;28;20026;-85
2023/04/20 06:17:42;;;;;;;12.15;6.63;;;7.90;64.30;;;;;;4990641;28;20526;-83
2023/04/20 06:20:10;;;;;;;10.13;5.57;;;8.00;64.60;;;;;;4991170;28;20352;-82
2023/04/20 06:22:42;;;;;;;12.77;6.55;;;8.10;64.70;;;;;;4990280;28;20026;-80
2023/04/20 06:25:09;;;;;;;13.45;6.28;;;8.20;64.70;;;;;;4981301;28;20030;-81
2023/04/20 06:27:35;;;;;;;9.93;6.10;;;8.30;64.70;;;;;;4985090;28;20074;-82
2023/04/20 06:30:00;;;;;;;10.02;5.95;;;8.30;64.70;;;;;;4992412;28;20058;-82
2023/04/20 06:32:26;;;;;;;12.35;6.72;;;8.40;64.90;;;;;;4990047;28;20038;-83
2023/04/20 06:34:52;;;;;;;11.38;6.55;;;8.50;64.70;;;;;;4999392;28;20026;-82
2023/04/20 06:37:18;;;;;;;10.00;6.20;;;8.50;64.50;;;;;;4993831;28;20029;-82
2023/04/20 06:39:44;;;;;;;9.02;5.85;;;8.50;64.90;;;;;;4990005;28;20026;-82
2023/04/20 06:42:09;;;;;;;11.57;6.10;;;8.60;64.50;;;;;;4995625;28;20042;-83
2023/04/20 06:44:35;;;;;;;13.73;6.40;;;8.60;64.80;;;;;;4991784;28;20030;-84
2023/04/20 06:47:01;;;;;;;11.25;6.72;;;8.70;65.10;;;;;;5002656;28;20049;-85
2023/04/20 06:49:26;;;;;;;11.27;6.43;;;8.80;65.00;;;;;;5011897;28;20050;-82
2023/04/20 06:51:52;;;;;;;12.55;5.47;;;8.90;64.40;;;;;;5000283;28;20041;-84
2023/04/20 06:54:18;;;;;;;11.85;6.60;;;8.80;64.90;;;;;;5000979;28;20057;-82
2023/04/20 06:56:43;;;;;;;10.80;5.82;;;9.00;64.90;;;;;;4989904;28;20035;-81
2023/04/20 06:59:09;;;;;;;13.50;6.63;;;8.90;64.60;;;;;;4990101;28;20454;-82
2023/04/20 07:01:35;;;;;;;11.43;6.60;;;9.10;64.80;;;;;;4990061;28;20121;-82
2023/04/20 07:04:00;;;;;;;12.85;7.22;;;9.20;64.40;;;;;;4991530;28;20030;-82
2023/04/20 07:06:27;;;;;;;12.63;6.53;;;9.20;64.30;;;;;;4991526;28;20026;-81
2023/04/20 07:08:53;;;;;;;13.23;7.93;;;9.20;64.20;;;;;;4991385;28;20041;-80
2023/04/20 07:11:18;;;;;;;11.50;6.30;;;9.30;64.50;;;;;;4989379;28;20047;-80
2023/04/20 07:13:44;;;;;;;12.93;6.47;;;9.30;64.20;;;;;;4989441;28;20031;-81
2023/04/20 07:16:10;;;;;;;13.63;6.25;;;9.30;63.90;;;;;;4987640;28;20038;-81
2023/04/20 07:18:36;;;;;;;9.95;6.00;;;9.40;63.90;;;;;;4993629;28;20041;-81
2023/04/20 07:21:02;;;;;;;10.52;5.75;;;9.40;63.80;;;;;;4987033;28;20077;-81
2023/04/20 07:23:27;;;;;;;12.70;6.35;;;9.30;63.80;;;;;;4985488;28;20046;-82
2023/04/20 07:25:53;;;;;;;11.63;6.47;;;9.30;63.50;;;;;;4985262;28;20034;-82
2023/04/20 07:28:19;;;;;;;10.73;5.97;;;9.40;63.70;;;;;;4986876;28;20018;-81
2023/04/20 07:30:44;;;;;;;12.85;6.70;;;9.40;63.90;;;;;;4978527;28;20018;-80
2023/04/20 07:33:10;;;;;;;10.80;6.72;;;9.50;64.10;;;;;;4994455;28;20026;-81
2023/04/20 07:35:36;;;;;;;9.57;5.55;;;9.60;64.30;;;;;;4989934;28;20045;-81
2023/04/20 07:38:02;;;;;;;10.82;6.35;;;9.60;64.30;;;;;;4995754;28;20105;-80
2023/04/20 07:40:28;;;;;;;10.32;5.50;;;9.60;64.20;;;;;;4992176;28;20651;-81
2023/04/20 07:42:53;;;;;;;9.85;6.15;;;9.80;64.30;;;;;;4992382;28;20042;-80
2023/04/20 07:45:20;;;;;;;10.10;5.63;;;9.80;64.10;;;;;;4996689;28;20526;-80
2023/04/20 07:47:50;;;;;;;11.93;5.57;;;9.90;64.20;;;;;;4992675;28;20031;-81
2023/04/20 07:50:16;;;;;;;12.10;5.97;;;9.90;64.00;;;;;;4991782;28;20655;-80
2023/04/20 07:52:43;;;;;;;11.75;6.20;;;9.90;64.30;;;;;;4992340;28;20035;-81
2023/04/20 07:55:13;;;;;;;10.23;5.82;;;9.90;64.40;;;;;;4990759;28;20416;-81
2023/04/20 07:57:40;;;;;;;11.65;5.82;;;9.90;65.00;;;;;;4987123;28;20042;-83
2023/04/20 08:00:07;;;;;;;10.70;5.45;;;9.90;65.10;;;;;;4988837;28;20121;-81
2023/04/20 08:02:34;;;;;;;9.10;5.10;;;9.90;65.40;;;;;;5003625;28;20034;-81
2023/04/20 08:05:02;;;;;;;11.25;5.13;;;9.90;65.40;;;;;;5012355;28;20038;-83
2023/04/20 08:07:27;;;;;;;11.65;5.82;;;10.00;65.50;;;;;;5016770;28;20035;-83
2023/04/20 08:09:53;;;;;;;10.73;5.28;;;10.10;65.50;;;;;;5005159;28;20037;-82
2023/04/20 08:12:19;;;;;;;14.25;5.45;;;10.10;65.60;;;;;;4995615;28;20026;-83
2023/04/20 08:14:45;;;;;;;9.07;5.35;;;10.10;65.50;;;;;;4994399;28;20066;-81
2023/04/20 08:17:11;;;;;;;11.38;5.60;;;10.10;65.50;;;;;;5001254;28;20061;-80
2023/04/20 08:19:37;;;;;;;11.45;5.38;;;10.00;65.80;;;;;;5008835;28;20097;-83
2023/04/20 08:22:04;;;;;;;12.57;5.60;;;10.10;65.90;;;;;;4994038;28;20447;-81
2023/04/20 08:24:30;;;;;;;11.40;5.28;;;9.90;65.00;;;;;;4993857;28;20082;-80
2023/04/20 08:26:58;;;;;;;12.25;5.47;;;9.80;65.00;;;;;;4989580;28;20069;-80
2023/04/20 08:29:24;;;;;;;10.05;5.68;;;9.80;65.00;;;;;;4993335;28;20363;-81
2023/04/20 08:31:50;;;;;;;14.05;6.22;;;9.90;65.60;;;;;;4991232;28;20568;-81
2023/04/20 08:34:16;;;;;;;13.15;5.80;;;9.90;65.30;;;;;;4994374;28;20474;-81
2023/04/20 08:36:42;;;;;;;10.73;5.78;;;9.90;64.60;;;;;;4994639;28;20437;-83
2023/04/20 08:39:13;;;;;;;12.10;6.65;;;9.80;64.40;;;;;;4994016;28;20018;-81
2023/04/20 08:41:39;;;;;;;16.63;9.60;;;9.70;64.60;;;;;;4992204;28;20027;-82
2023/04/20 08:44:06;;;;;;;16.77;10.88;;;9.80;64.50;;;;;;4997300;28;20030;-81
2023/04/20 08:46:33;;;;;;;17.33;10.95;;;9.90;64.60;;;;;;4985529;28;20484;-80
2023/04/20 08:49:02;;;;;;;18.00;10.45;;;9.90;64.20;;;;;;4984709;28;20015;-82
2023/04/20 08:51:31;;;;;;;14.27;8.75;;;10.10;64.50;;;;;;4994651;28;20129;-82
2023/04/20 08:54:04;;;;;;;11.95;7.85;;;9.90;64.50;;;;;;4987002;28;20119;-81
2023/04/20 08:56:44;;;;;;;12.68;7.07;;;10.00;64.40;;;;;;4987072;28;20372;-79
2023/04/20 08:59:12;;;;;;;10.38;5.55;;;10.10;64.80;;;;;;4986807;28;20033;-81
2023/04/20 09:01:40;;;;;;;12.75;6.18;;;10.40;64.50;;;;;;4984921;28;20026;-81
2023/04/20 09:04:20;;;;;;;10.18;6.18;;;10.70;64.30;;;;;;4992618;28;20537;-79
2023/04/20 09:06:50;;;;;;;11.65;6.35;;;10.70;63.40;;;;;;4996416;28;20034;-81
2023/04/20 09:09:20;;;;;;;12.15;5.97;;;10.80;62.70;;;;;;4972008;28;20367;-81
2023/04/20 09:11:46;;;;;;;9.02;6.10;;;10.70;62.20;;;;;;4992738;28;20034;-82
2023/04/20 09:14:16;;;;;;;10.93;6.20;;;10.80;62.50;;;;;;5001912;28;20474;-82
2023/04/20 09:16:50;;;;;;;12.30;6.22;;;10.80;62.30;;;;;;4986710;28;20027;-82
2023/04/20 09:19:21;;;;;;;10.82;6.45;;;11.00;62.40;;;;;;4984708;28;20081;-81
2023/04/20 09:21:49;;;;;;;13.00;6.50;;;11.10;61.50;;;;;;4990648;28;20455;-79
2023/04/20 09:24:15;;;;;;;10.32;5.82;;;11.00;62.20;;;;;;4991704;28;20042;-80
2023/04/20 09:26:41;;;;;;;12.85;8.93;;;11.00;61.50;;;;;;4991969;28;20493;-81
2023/04/20 09:29:20;;;;;;;14.27;7.93;;;10.90;62.00;;;;;;4983673;28;20046;-81
2023/04/20 09:31:47;;;;;;;12.20;7.28;;;10.60;60.10;;;;;;4984539;28;20042;-81
2023/04/20 09:34:13;;;;;;;10.75;7.10;;;10.50;61.20;;;;;;4983319;28;20367;-81
2023/04/20 09:36:40;;;;;;;12.93;7.30;;;10.40;61.50;;;;;;4987846;28;20030;-82
2023/04/20 09:39:11;;;;;;;12.18;7.57;;;10.20;61.30;;;;;;4992927;28;20269;-81
2023/04/20 09:41:39;;;;;;;11.23;7.32;;;10.10;62.20;;;;;;4993435;28;20057;-83
2023/04/20 09:44:06;;;;;;;13.98;7.78;;;10.10;61.60;;;;;;4983869;28;20037;-81
2023/04/20 09:46:34;;;;;;;13.15;7.70;;;10.10;61.70;;;;;;4991810;28;20034;-82
2023/04/20 09:49:02;;;;;;;12.80;7.55;;;10.20;62.00;;;;;;4995399;28;20041;-80
2023/04/20 09:51:31;;;;;;;14.95;8.75;;;10.30;61.50;;;;;;4995850;28;20030;-79
2023/04/20 09:53:59;;;;;;;15.30;8.07;;;10.20;61.90;;;;;;4988834;28;20026;-81
2023/04/20 09:56:26;;;;;;;17.52;9.18;;;10.10;62.60;;;;;;4988967;28;20117;-82
2023/04/20 09:58:53;;;;;;;15.88;8.75;;;10.10;62.80;;;;;;4985484;28;20061;-82
2023/04/20 10:01:19;;;;;;;16.52;8.73;;;10.10;63.00;;;;;;4986441;28;20031;-81
2023/04/20 10:03:45;;;;;;;17.17;8.57;;;10.10;62.40;;;;;;4991255;28;20038;-80
2023/04/20 10:06:25;;;;;;;12.52;9.27;;;10.10;63.10;;;;;;4986255;28;20154;-82
2023/04/20 10:08:51;;;;;;;15.95;10.68;;;10.00;62.80;;;;;;4997146;28;20038;-81
2023/04/20 10:11:31;;;;;;;16.02;9.95;;;9.90;63.40;;;;;;4992305;28;20130;-82
2023/04/20 10:13:58;;;;;;;16.80;11.02;;;9.90;63.70;;;;;;4992525;28;20026;-82
2023/04/20 10:16:25;;;;;;;17.63;9.95;;;9.90;63.40;;;;;;4989287;28;20113;-81
2023/04/20 10:19:01;;;;;;;14.60;7.78;;;10.00;64.00;;;;;;4989427;28;20065;-81
2023/04/20 10:21:29;;;;;;;12.00;7.10;;;9.90;64.50;;;;;;5000622;28;20034;-80
2023/04/20 10:23:57;;;;;;;12.35;6.82;;;9.70;67.00;;;;;;4994009;28;20085;-79
2023/04/20 10:26:23;;;;;;;11.45;7.00;;;9.60;68.10;;;;;;4984996;28;20042;-81
2023/04/20 10:28:49;;;;;;;15.20;7.93;;;9.60;68.70;;;;;;4985898;28;20407;-82
2023/04/20 10:31:15;;;;;;;14.18;7.80;;;9.50;69.00;;;;;;4989264;28;20117;-81
2023/04/20 10:34:07;;;;;;;16.75;8.15;;;9.50;69.20;;;;;;4986296;28;20030;-81
2023/04/20 10:36:37;;;;;;;14.65;8.23;;;9.60;69.40;;;;;;4981355;28;20050;-82
2023/04/20 10:39:16;;;;;;;15.45;8.77;;;9.60;69.90;;;;;;4983548;28;20064;-81
2023/04/20 10:41:53;;;;;;;14.18;8.23;;;9.60;69.70;;;;;;4980949;28;20185;-82
2023/04/20 10:44:19;;;;;;;13.63;8.23;;;9.60;69.50;;;;;;4978513;28;20027;-83
2023/04/20 10:46:49;;;;;;;14.43;9.30;;;9.60;69.80;;;;;;4982242;28;20078;-82
2023/04/20 10:49:15;;;;;;;15.15;8.27;;;9.60;70.30;;;;;;4986891;28;20084;-82
2023/04/20 10:51:48;;;;;;;13.23;7.38;;;9.60;70.20;;;;;;4983400;28;20026;-81
2023/04/20 10:54:15;;;;;;;15.07;6.93;;;9.60;70.30;;;;;;4983568;28;20026;-82
2023/04/20 10:56:47;;;;;;;12.40;7.35;;;9.60;70.40;;;;;;4981203;28;20628;-82
2023/04/20 10:59:20;;;;;;;10.82;6.68;;;9.60;70.50;;;;;;4982750;28;20031;-82
2023/04/20 11:01:47;;;;;;;11.68;6.55;;;9.80;70.60;;;;;;4987484;28;20026;-82
2023/04/20 11:04:13;;;;;;;12.25;6.90;;;10.00;70.30;;;;;;4999817;28;20050;-83
2023/04/20 11:06:41;;;;;;;11.90;6.78;;;10.00;70.40;;;;;;5000276;28;20390;-81
2023/04/20 11:09:19;;;;;;;12.95;6.85;;;10.10;70.20;;;;;;4997107;28;20486;-82
2023/04/20 11:11:45;;;;;;;14.15;7.28;;;10.10;70.10;;;;;;4982957;28;20046;-81
2023/04/20 11:14:12;;;;;;;10.27;7.10;;;10.00;70.40;;;;;;4981802;28;20030;-82
2023/04/20 11:16:38;;;;;;;11.40;7.45;;;10.10;70.40;;;;;;4984094;28;20030;-82
2023/04/20 11:19:05;;;;;;;11.48;7.30;;;10.00;70.80;;;;;;4977936;28;20065;-82
2023/04/20 11:21:39;;;;;;;14.57;8.60;;;10.00;70.40;;;;;;4982324;28;20074;-83
2023/04/20 11:24:17;;;;;;;14.88;8.00;;;10.00;70.80;;;;;;5000135;28;20080;-82
2023/04/20 11:26:43;;;;;;;13.75;7.70;;;9.80;71.30;;;;;;4982360;28;20435;-82
2023/04/20 11:29:09;;;;;;;15.52;8.07;;;9.80;71.30;;;;;;4980947;28;20127;-82
2023/04/20 11:31:35;;;;;;;16.23;9.35;;;9.80;71.60;;;;;;4983852;28;20055;-82
2023/04/20 11:34:02;;;;;;;20.23;12.50;;;9.90;71.60;;;;;;4987477;28;20121;-84
2023/04/20 11:36:29;;;;;;;14.82;10.20;;;9.90;70.60;;;;;;4989095;28;20025;-84
2023/04/20 11:39:05;;;;;;;15.32;9.75;;;10.10;70.60;;;;;;4988812;28;20034;-82
2023/04/20 11:41:31;;;;;;;14.23;9.05;;;9.80;71.30;;;;;;4984158;28;20045;-82
2023/04/20 11:43:57;;;;;;;13.95;8.57;;;9.90;72.00;;;;;;4986441;28;20022;-81
2023/04/20 11:46:22;;;;;;;13.57;9.65;;;10.00;72.00;;;;;;4984273;28;20027;-80
2023/04/20 11:48:48;;;;;;;13.50;9.60;;;9.80;71.60;;;;;;4991166;28;20038;-82
2023/04/20 11:51:14;;;;;;;14.27;9.88;;;9.70;72.00;;;;;;4988142;28;20050;-82
2023/04/20 11:53:40;;;;;;;24.77;14.30;;;9.80;71.60;;;;;;4988884;28;20026;-81
2023/04/20 11:56:07;;;;;;;21.15;13.32;;;9.80;71.20;;;;;;4990864;28;20041;-81
2023/04/20 11:58:33;;;;;;;20.77;11.15;;;9.70;71.10;;;;;;4987765;28;20363;-81
2023/04/20 12:00:59;;;;;;;19.70;12.48;;;9.70;71.70;;;;;;4987175;28;20026;-81
2023/04/20 12:03:25;;;;;;;18.52;12.07;;;9.80;71.40;;;;;;4982119;28;20058;-81
2023/04/20 12:05:51;;;;;;;16.98;11.52;;;9.80;71.60;;;;;;4981119;28;20073;-81
2023/04/20 12:08:17;;;;;;;20.55;13.07;;;9.90;71.30;;;;;;4990236;28;20518;-81
2023/04/20 12:10:44;;;;;;;20.08;13.25;;;10.10;70.90;;;;;;4989551;28;20018;-81
2023/04/20 12:13:10;;;;;;;21.98;12.73;;;10.00;70.80;;;;;;4989458;28;20049;-81
2023/04/20 12:15:35;;;;;;;19.65;12.25;;;10.00;70.80;;;;;;4992643;28;20046;-80
2023/04/20 12:18:01;;;;;;;22.70;13.13;;;10.00;70.40;;;;;;4992605;28;20475;-82
2023/04/20 12:20:27;;;;;;;19.58;11.98;;;9.90;70.90;;;;;;5008167;28;20034;-81
2023/04/20 12:22:52;;;;;;;18.83;13.15;;;10.10;71.00;;;;;;5007167;28;20046;-81
2023/04/20 12:25:19;;;;;;;22.15;13.00;;;10.10;70.50;;;;;;5012630;28;20155;-80
2023/04/20 12:27:45;;;;;;;20.50;13.27;;;10.10;70.60;;;;;;5016275;28;20022;-78
2023/04/20 12:30:12;;;;;;;16.35;12.52;;;10.10;71.00;;;;;;5005646;28;20018;-79
2023/04/20 12:32:38;;;;;;;19.13;11.90;;;10.00;70.90;;;;;;5007338;28;20112;-81
2023/04/20 12:35:04;;;;;;;16.90;12.07;;;10.10;70.40;;;;;;5000652;28;20018;-80
2023/04/20 12:37:30;;;;;;;19.58;12.75;;;10.00;70.50;;;;;;5001464;28;20039;-82
2023/04/20 12:39:56;;;;;;;19.50;12.35;;;10.10;70.20;;;;;;5007325;28;20081;-81
2023/04/20 12:42:23;;;;;;;20.45;12.95;;;10.20;70.90;;;;;;4993079;28;20030;-81